ADDS METAR Data INFO
IDs: Format: Raw Decoded Include TAF

Data at: 1147 UTC 23 Jun 2018

KJYR 231135Z AUTO 27004KT 2 1/2SM BR SCT022 OVC110 16/15 A2984 RMK AO2
KJYR 231115Z AUTO 27007KT 3SM BR FEW022 SCT085 OVC110 16/15 A2984 RMK AO2
KJYR 231055Z AUTO 23006KT 5SM BR FEW022 SCT090 OVC110 16/15 A2981 RMK AO2
KJYR 231035Z AUTO 00000KT 5SM BR FEW022 SCT050 BKN070 16/15 A2979 RMK AO2
KJYR 231015Z AUTO 00000KT 4SM BR FEW048 BKN070 BKN095 16/15 A2979 RMK AO2
KJYR 230955Z AUTO 11004KT 2 1/2SM BR FEW035 SCT080 BKN095 16/15 A2978 RMK AO2
KJYR 230935Z AUTO 00000KT 2SM -RA SCT038 SCT070 BKN110 15/15 A2980 RMK AO2
KJYR 230915Z AUTO 00000KT 4SM BR FEW003 16/15 A2980 RMK AO2
KJYR 230855Z AUTO 00000KT 2 1/2SM BR FEW003 15/15 A2979 RMK AO2
KJYR 230835Z AUTO 00000KT 4SM BR CLR 16/15 A2980 RMK AO2
KJYR 230815Z AUTO 00000KT 4SM BR FEW060 16/15 A2981 RMK AO2
KJYR 230755Z AUTO 11006KT 2 1/2SM BR FEW004 BKN060 OVC100 15/15 A2981 RMK AO2
KJYR 230735Z AUTO 00000KT 4SM BR FEW038 SCT070 OVC100 16/15 A2985 RMK AO2
KJYR 230715Z AUTO 28004KT 3SM BR OVC100 15/15 A2987 RMK AO2 LTG DSNT SW AND NW
KJYR 230655Z AUTO 00000KT 4SM BR BKN090 15/15 A2984 RMK AO2
KJYR 230635Z AUTO 00000KT 3SM BR CLR 15/15 A2983 RMK AO2
KJYR 230615Z AUTO 00000KT 5SM VCTS BR CLR 15/15 A2984 RMK AO2 LTG DSNT SW AND W
KJYR 230555Z AUTO 00000KT 4SM VCTS BR CLR 15/15 A2985 RMK AO2 LTG DSNT SW
KJYR 230535Z AUTO 00000KT 5SM BR CLR 15/15 A2985 RMK AO2 LTG DSNT W
KJYR 230515Z AUTO 00000KT 8SM CLR 16/15 A2984 RMK AO2
KJYR 230455Z AUTO 00000KT 9SM CLR 16/15 A2984 RMK AO2
KJYR 230435Z AUTO 10003KT 8SM CLR 15/15 A2983 RMK AO2
KJYR 230415Z AUTO 00000KT 10SM CLR 17/15 A2982 RMK AO2
KJYR 230355Z AUTO 14003KT 10SM CLR 17/16 A2983 RMK AO2
KJYR 230335Z AUTO 14003KT 10SM CLR 17/16 A2984 RMK AO2
KJYR 230315Z AUTO 13005KT 10SM CLR 17/15 A2984 RMK AO2
KJYR 230255Z AUTO 16005KT 10SM CLR 17/16 A2983 RMK AO2
KJYR 230235Z AUTO 17004KT 10SM FEW045 18/16 A2983 RMK AO2
KJYR 230215Z AUTO 20005KT 10SM FEW045 18/16 A2983 RMK AO2
KJYR 230155Z AUTO 20004KT 10SM FEW110 17/16 A2984 RMK AO2
KJYR 230135Z AUTO 20004KT 10SM BKN110 18/17 A2985 RMK AO2
KJYR 230115Z AUTO 17003KT 10SM SCT110 19/16 A2986 RMK AO2
KJYR 230055Z AUTO 10006KT 10SM SCT032 19/16 A2982 RMK AO2
KJYR 230035Z AUTO 11007KT 10SM SCT024 BKN032 20/16 A2983 RMK AO2
KJYR 230015Z AUTO 08009KT 10SM BKN023 OVC032 20/16 A2983 RMK AO2
KJYR 222355Z AUTO 03005KT 10SM SCT020 OVC032 20/16 A2986 RMK AO2
KJYR 222335Z AUTO 09006KT 10SM SCT020 BKN029 20/16 A2985 RMK AO2
KJYR 222315Z AUTO 09006KT 10SM SCT020 BKN026 BKN032 20/16 A2985 RMK AO2
KJYR 222255Z AUTO 07005KT 10SM BKN020 BKN034 20/16 A2985 RMK AO2 LTG DSNT SW
KJYR 222235Z AUTO 05004KT 10SM FEW018 BKN034 20/15 A2986 RMK AO2
KJYR 222215Z AUTO 14004KT 10SM FEW018 SCT028 OVC034 20/15 A2987 RMK AO2
KJYR 222155Z AUTO 09004KT 10SM SCT020 OVC029 20/15 A2987 RMK AO2
KJYR 222135Z AUTO 06003KT 10SM BKN019 OVC027 19/15 A2988 RMK AO2
KJYR 222115Z AUTO 00000KT 10SM BKN019 OVC024 19/15 A2989 RMK AO2
KJYR 222055Z AUTO 10003KT 10SM OVC019 19/15 A2989 RMK AO2
KJYR 222035Z AUTO 14003KT 10SM OVC019 19/15 A2990 RMK AO2
KJYR 222015Z AUTO 11003KT 10SM OVC019 19/15 A2990 RMK AO2
KJYR 221955Z AUTO 12003KT 10SM OVC019 19/15 A2990 RMK AO2
KJYR 221935Z AUTO 12004KT 10SM OVC019 19/15 A2991 RMK AO2
KJYR 221915Z AUTO 00000KT 10SM OVC019 19/15 A2992 RMK AO2
KJYR 221855Z AUTO 11005KT 10SM OVC019 19/15 A2992 RMK AO2
KJYR 221835Z AUTO 09003KT 10SM OVC017 19/15 A2992 RMK AO2
KJYR 221815Z AUTO 06005KT 10SM OVC017 19/15 A2992 RMK AO2
KJYR 221755Z AUTO 09007KT 10SM BKN014 OVC020 19/15 A2992 RMK AO2
KJYR 221735Z AUTO 07008KT 10SM OVC014 18/15 A2992 RMK AO2
KJYR 221715Z AUTO 06008KT 10SM OVC014 18/15 A2993 RMK AO2
KJYR 221655Z AUTO 06006KT 10SM OVC014 18/15 A2994 RMK AO2
KJYR 221635Z AUTO 05005KT 10SM OVC014 18/15 A2994 RMK AO2
KJYR 221615Z AUTO 05006KT 10SM SCT010 OVC017 17/14 A2994 RMK AO2
KJYR 221555Z AUTO 04009KT 10SM OVC011 17/14 A2994 RMK AO2
KJYR 221535Z AUTO 05012KT 10SM OVC013 17/14 A2993 RMK AO2
KJYR 221515Z AUTO 04010KT 10SM OVC013 17/14 A2993 RMK AO2
KJYR 221455Z AUTO 03007KT 10SM BKN011 OVC020 17/14 A2995 RMK AO2
KJYR 221435Z AUTO 03011KT 10SM SCT011 OVC020 17/14 A2993 RMK AO2
KJYR 221415Z AUTO 03010KT 10SM FEW013 OVC022 16/14 A2994 RMK AO2
KJYR 221355Z AUTO 02010KT 10SM BKN022 OVC028 16/14 A2993 RMK AO2
KJYR 221335Z AUTO 01009G15KT 10SM BKN028 17/14 A2993 RMK AO2
KJYR 221315Z AUTO 35005KT 10SM FEW025 SCT030 16/14 A2994 RMK AO2
KJYR 221255Z AUTO 01009KT 10SM CLR 15/14 A2993 RMK AO2
KJYR 221235Z AUTO 36006KT 10SM CLR 15/14 A2993 RMK AO2
KJYR 221215Z AUTO 01007KT 8SM CLR 14/14 A2993 RMK AO2
KJYR 221155Z AUTO 33005KT 8SM CLR 14/13 A2993 RMK AO2
KJYR 221135Z AUTO 31006KT 6SM BR CLR 13/13 A2994 RMK AO2
KJYR 221115Z AUTO 36003KT 8SM FEW018 13/13 A2992 RMK AO2
KJYR 221055Z AUTO 35004KT 9SM CLR 14/13 A2992 RMK AO2
KJYR 221035Z AUTO 34004KT 9SM FEW016 14/13 A2992 RMK AO2
KJYR 221015Z AUTO 33004KT 8SM SCT016 14/13 A2992 RMK AO2
KJYR 220955Z AUTO 32003KT 10SM SCT014 14/14 A2991 RMK AO2
KJYR 220935Z AUTO 32004KT 9SM FEW014 14/14 A2991 RMK AO2
KJYR 220915Z AUTO 36003KT 10SM FEW016 BKN026 15/14 A2991 RMK AO2
KJYR 220855Z AUTO 36004KT 10SM OVC024 15/14 A2991 RMK AO2
KJYR 220835Z AUTO 01007KT 10SM OVC022 15/14 A2991 RMK AO2
KJYR 220815Z AUTO 01009KT 10SM OVC019 15/14 A2991 RMK AO2
KJYR 220755Z AUTO 01011G14KT 10SM OVC015 16/14 A2992 RMK AO2
KJYR 220735Z AUTO 36007KT 10SM OVC013 16/15 A2992 RMK AO2
KJYR 220715Z AUTO 01008KT 10SM OVC011 16/14 A2993 RMK AO2
KJYR 220655Z AUTO 01010G15KT 10SM OVC011 16/15 A2993 RMK AO2
KJYR 220635Z AUTO 34005KT 10SM OVC013 17/15 A2994 RMK AO2
KJYR 220615Z AUTO 35005KT 10SM OVC013 17/15 A2993 RMK AO2
KJYR 220555Z AUTO 35006KT 10SM BKN013 OVC019 17/15 A2994 RMK AO2
KJYR 220535Z AUTO 36008KT 10SM BKN015 OVC021 17/15 A2993 RMK AO2
KJYR 220515Z AUTO 36008KT 10SM BKN011 OVC019 17/15 A2993 RMK AO2
KJYR 220455Z AUTO 35003KT 10SM BKN009 BKN013 OVC019 17/15 A2993 RMK AO2
KJYR 220435Z AUTO 35005KT 10SM OVC011 17/15 A2994 RMK AO2
KJYR 220415Z AUTO 33007KT 10SM BKN011 OVC017 17/15 A2994 RMK AO2
KJYR 220355Z AUTO 01009KT 10SM -RA OVC015 17/15 A2993 RMK AO2
KJYR 220335Z AUTO 35005KT 10SM OVC013 17/15 A2993 RMK AO2
KJYR 220315Z AUTO 01007KT 10SM OVC015 17/15 A2993 RMK AO2
KJYR 220255Z AUTO 36006KT 10SM BKN015 OVC021 16/15 A2993 RMK AO2
KJYR 220235Z AUTO 36006KT 10SM BKN009 BKN015 OVC020 16/15 A2992 RMK AO2
KJYR 220215Z AUTO 35007KT 10SM OVC009 16/15 A2993 RMK AO2
KJYR 220155Z AUTO 35006KT 8SM -RA OVC009 16/15 A2993 RMK AO2
KJYR 220135Z AUTO 35007KT 9SM -RA OVC009 16/15 A2993 RMK AO2
KJYR 220115Z AUTO 35007KT 9SM -RA OVC009 16/15 A2993 RMK AO2
KJYR 220055Z AUTO 01011G16KT 10SM -RA OVC011 17/15 A2992 RMK AO2
KJYR 220035Z AUTO 36010G14KT 9SM -RA OVC011 17/15 A2992 RMK AO2
KJYR 220015Z AUTO 01014G19KT 10SM -RA OVC013 17/15 A2991 RMK AO2
KJYR 212355Z AUTO 01014G19KT 10SM -RA OVC015 17/15 A2990 RMK AO2